Time;durP1;ratioP1;P1;durP2;ratioP2;P2;SDS_P1;SDS_P2;PMS_P1;PMS_P2;Temp;Humidity;BMP_temperature;BMP_pressure;BME280_temperature;BME280_humidity;BME280_pressure;Samples;Min_cycle;Max_cycle;Signal;HPM_P1;HPM_P2
2022/03/11 00:02:17;;;;;;;;;;;;;;;7.42;62.09;100029.13;4994428;28;20037;-66
2022/03/11 00:05:02;;;;;;;;;;;;;;;7.42;61.86;100022.28;4994555;28;19987;-66
2022/03/11 00:07:46;;;;;;;;;;;;;;;7.41;62.03;100027.38;4993884;28;19928;-67
2022/03/11 00:10:30;;;;;;;;;;;;;;;7.41;61.83;100023.13;4994291;28;20388;-66
2022/03/11 00:13:14;;;;;;;;;;;;;;;7.39;62.13;100013.59;4992989;28;19968;-66
2022/03/11 00:15:58;;;;;;;;;;;;;;;7.39;61.76;100014.47;4993731;28;19948;-66
2022/03/11 00:18:42;;;;;;;;;;;;;;;7.40;61.68;100015.31;4994405;28;19923;-66
2022/03/11 00:21:25;;;;;;;;;;;;;;;7.39;61.75;100018.75;4993966;28;19925;-67
2022/03/11 00:24:09;;;;;;;;;;;;;;;7.39;61.76;100013.59;4995374;28;19989;-66
2022/03/11 00:26:54;;;;;;;;;;;;;;;7.39;61.65;100003.28;4997902;28;20475;-66
2022/03/11 00:29:37;;;;;;;;;;;;;;;7.40;61.77;100003.31;4998132;28;19928;-65
2022/03/11 00:32:21;;;;;;;;;;;;;;;7.41;61.20;100004.19;4998198;28;19964;-66
2022/03/11 00:35:08;;;;;;;;;;;;;;;7.40;61.51;100000.75;4998057;28;20443;-67
2022/03/11 00:37:52;;;;;;;;;;;;;;;7.42;61.17;100000.78;4998143;28;19964;-66
2022/03/11 00:40:36;;;;;;;;;;;;;;;7.42;61.59;99999.09;4998506;28;19948;-66
2022/03/11 00:43:20;;;;;;;;;;;;;;;7.40;61.19;100000.75;4997451;28;19924;-66
2022/03/11 00:46:04;;;;;;;;;;;;;;;7.40;61.23;99992.09;4997860;28;20391;-66
2022/03/11 00:48:48;;;;;;;;;;;;;;;7.39;61.40;99987.81;4996803;28;19925;-65
2022/03/11 00:51:32;;;;;;;;;;;;;;;7.39;61.27;99986.09;4996986;28;19940;-66
2022/03/11 00:54:17;;;;;;;;;;;;;;;7.39;61.36;99987.81;4998276;28;19929;-66
2022/03/11 00:57:01;;;;;;;;;;;;;;;7.38;61.11;99984.34;4997736;28;19972;-66
2022/03/11 00:59:45;;;;;;;;;;;;;;;7.39;61.22;99977.50;4997304;28;20402;-66
2022/03/11 01:02:32;;;;;;;;;;;;;;;7.40;61.31;99974.94;4997953;28;20001;-65
2022/03/11 01:05:16;;;;;;;;;;;;;;;7.41;61.32;99961.22;4997636;28;19967;-66
2022/03/11 01:08:00;;;;;;;;;;;;;;;7.42;61.26;99967.25;4997762;28;20293;-66
2022/03/11 01:10:44;;;;;;;;;;;;;;;7.42;61.02;99962.09;4997540;28;19940;-65
2022/03/11 01:13:30;;;;;;;;;;;;;;;7.41;61.13;99961.22;4996216;28;19924;-66
2022/03/11 01:16:14;;;;;;;;;;;;;;;7.42;61.31;99946.63;4996174;28;19941;-65
2022/03/11 01:18:58;;;;;;;;;;;;;;;7.42;61.25;99951.78;4997492;28;19971;-66
2022/03/11 01:21:41;;;;;;;;;;;;;;;7.41;61.25;99940.59;4997385;28;19924;-66
2022/03/11 01:24:25;;;;;;;;;;;;;;;7.43;60.93;99945.78;4997601;28;19925;-66
2022/03/11 01:27:09;;;;;;;;;;;;;;;7.41;60.81;99952.59;4997458;28;19923;-66
2022/03/11 01:29:53;;;;;;;;;;;;;;;7.42;60.54;99946.63;4997502;28;19972;-65
2022/03/11 01:32:37;;;;;;;;;;;;;;;7.41;60.95;99940.59;4997172;28;19972;-66
2022/03/11 01:35:22;;;;;;;;;;;;;;;7.40;60.70;99940.53;4996902;28;19925;-65
2022/03/11 01:38:06;;;;;;;;;;;;;;;7.39;60.45;99936.25;4995552;28;19963;-66
2022/03/11 01:40:50;;;;;;;;;;;;;;;7.36;60.34;99925.84;4996045;28;19933;-66
2022/03/11 01:43:53;;;;;;;;;;;;;;;7.36;60.32;99936.16;4997125;28;20269;-66
2022/03/11 01:46:38;;;;;;;;;;;;;;;7.37;60.74;99925.00;4995841;28;19957;-66
2022/03/11 01:49:22;;;;;;;;;;;;;;;7.37;60.74;99925.88;4996846;28;19964;-65
2022/03/11 01:52:06;;;;;;;;;;;;;;;7.39;60.77;99923.34;4996530;28;20300;-66
2022/03/11 01:54:50;;;;;;;;;;;;;;;7.38;60.55;99919.03;4996562;28;19925;-66
2022/03/11 01:57:37;;;;;;;;;;;;;;;7.35;60.47;99917.22;4995266;28;19924;-65
2022/03/11 02:00:21;;;;;;;;;;;;;;;7.34;60.28;99910.31;4996058;28;20399;-65
2022/03/11 02:03:05;;;;;;;;;;;;;;;7.33;60.24;99911.13;4996447;28;19959;-65
2022/03/11 02:05:49;;;;;;;;;;;;;;;7.31;60.36;99911.13;4995915;28;19945;-66
2022/03/11 02:08:34;;;;;;;;;;;;;;;7.31;60.48;99908.53;4996622;28;19981;-66
2022/03/11 02:11:18;;;;;;;;;;;;;;;7.30;60.45;99899.06;4996306;28;19923;-66
2022/03/11 02:14:02;;;;;;;;;;;;;;;7.30;60.30;99899.06;4995805;28;19925;-66
2022/03/11 02:16:46;;;;;;;;;;;;;;;7.29;60.03;99899.88;4996673;28;19933;-66
2022/03/11 02:19:30;;;;;;;;;;;;;;;7.28;59.94;99900.72;4996522;28;20057;-66
2022/03/11 02:22:15;;;;;;;;;;;;;;;7.28;60.18;99897.28;4994880;28;19980;-65
2022/03/11 02:25:00;;;;;;;;;;;;;;;7.28;59.81;99892.13;4995494;28;19924;-66
2022/03/11 02:27:46;;;;;;;;;;;;;;;7.27;59.71;99886.06;4995983;28;19924;-66
2022/03/11 02:30:30;;;;;;;;;;;;;;;7.26;59.80;99892.06;4995382;28;19964;-65
2022/03/11 02:33:13;;;;;;;;;;;;;;;7.28;59.68;99884.38;4995836;28;20395;-66
2022/03/11 02:35:58;;;;;;;;;;;;;;;7.30;59.83;99888.75;4996029;28;20023;-66
2022/03/11 02:38:42;;;;;;;;;;;;;;;7.29;60.05;99888.72;4996035;28;20295;-66
2022/03/11 02:41:26;;;;;;;;;;;;;;;7.30;60.20;99885.31;4996294;28;19964;-66
2022/03/11 02:44:10;;;;;;;;;;;;;;;7.29;60.12;99883.56;4995518;28;19925;-66
2022/03/11 02:46:54;;;;;;;;;;;;;;;7.29;59.89;99876.69;4994697;28;19924;-66
2022/03/11 02:49:38;;;;;;;;;;;;;;;7.30;60.05;99883.59;4996015;28;19928;-66
2022/03/11 02:52:22;;;;;;;;;;;;;;;7.30;60.02;99883.59;4995946;28;20316;-66
2022/03/11 02:55:06;;;;;;;;;;;;;;;7.33;60.25;99882.78;4995737;28;19925;-65
2022/03/11 02:57:50;;;;;;;;;;;;;;;7.32;60.31;99879.34;4994106;28;20024;-65
2022/03/11 03:00:34;;;;;;;;;;;;;;;7.34;60.28;99871.63;4995809;28;19975;-66
2022/03/11 03:03:18;;;;;;;;;;;;;;;7.34;60.61;99878.50;4994100;28;19924;-66
2022/03/11 03:06:02;;;;;;;;;;;;;;;7.34;60.26;99871.63;4995339;28;19944;-66
2022/03/11 03:08:46;;;;;;;;;;;;;;;7.35;60.25;99873.38;4995711;28;19925;-66
2022/03/11 03:11:30;;;;;;;;;;;;;;;7.32;60.42;99863.88;4994884;28;20353;-65
2022/03/11 03:14:14;;;;;;;;;;;;;;;7.33;60.41;99867.31;4995359;28;19924;-65
2022/03/11 03:16:59;;;;;;;;;;;;;;;7.33;60.67;99867.31;4995409;28;19941;-66
2022/03/11 03:19:42;;;;;;;;;;;;;;;7.35;60.65;99865.66;4995159;28;20064;-66
2022/03/11 03:22:26;;;;;;;;;;;;;;;7.34;60.64;99855.31;4995497;28;19928;-66
2022/03/11 03:25:10;;;;;;;;;;;;;;;7.34;60.45;99850.16;4995070;28;20019;-65
2022/03/11 03:27:54;;;;;;;;;;;;;;;7.31;60.83;99849.25;4995119;28;19979;-66
2022/03/11 03:30:38;;;;;;;;;;;;;;;7.31;60.97;99854.41;4994017;28;19963;-66
2022/03/11 03:33:22;;;;;;;;;;;;;;;7.30;60.44;99850.06;4994979;28;19955;-66
2022/03/11 03:36:06;;;;;;;;;;;;;;;7.30;60.65;99849.22;4994352;28;19968;-66
2022/03/11 03:38:50;;;;;;;;;;;;;;;7.30;60.75;99844.06;4994616;28;19924;-65
2022/03/11 03:41:34;;;;;;;;;;;;;;;7.30;60.83;99849.22;4994718;28;20456;-67
2022/03/11 03:44:17;;;;;;;;;;;;;;;7.30;60.55;99844.91;4995126;28;19924;-66
2022/03/11 03:47:02;;;;;;;;;;;;;;;7.28;60.47;99841.41;4993321;28;19924;-65
2022/03/11 03:49:46;;;;;;;;;;;;;;;7.26;60.44;99843.06;4994866;28;20403;-66
2022/03/11 03:52:30;;;;;;;;;;;;;;;7.23;60.42;99840.44;4993390;28;20485;-65
2022/03/11 03:55:14;;;;;;;;;;;;;;;7.24;60.44;99838.72;4994972;28;20384;-66
2022/03/11 03:57:57;;;;;;;;;;;;;;;7.25;60.35;99835.31;4994455;28;19925;-66
2022/03/11 04:00:41;;;;;;;;;;;;;;;7.22;60.02;99830.97;4994491;28;19925;-65
2022/03/11 04:03:25;;;;;;;;;;;;;;;7.21;60.22;99839.53;4994172;28;19988;-66
2022/03/11 04:06:09;;;;;;;;;;;;;;;7.22;60.44;99830.97;4994534;28;20007;-66
2022/03/11 04:08:54;;;;;;;;;;;;;;;7.20;60.41;99836.88;4994074;28;20411;-66
2022/03/11 04:11:40;;;;;;;;;;;;;;;7.20;60.31;99831.75;4993283;28;20316;-66
2022/03/11 04:14:24;;;;;;;;;;;;;;;7.19;60.18;99828.31;4994673;28;20397;-65
2022/03/11 04:17:08;;;;;;;;;;;;;;;7.19;60.32;99825.72;4994234;28;19924;-66
2022/03/11 04:19:52;;;;;;;;;;;;;;;7.18;60.51;99829.13;4994664;28;19924;-65
2022/03/11 04:22:40;;;;;;;;;;;;;;;7.19;60.20;99824.84;4994435;28;20004;-66
2022/03/11 04:25:23;;;;;;;;;;;;;;;7.16;59.97;99826.50;4994256;28;20350;-66
2022/03/11 04:28:07;;;;;;;;;;;;;;;7.14;60.35;99823.03;4994638;28;20033;-67
2022/03/11 04:30:52;;;;;;;;;;;;;;;7.13;60.27;99823.88;4994030;28;20288;-65
2022/03/11 04:33:36;;;;;;;;;;;;;;;7.13;60.18;99820.41;4994187;28;19956;-65
2022/03/11 04:36:21;;;;;;;;;;;;;;;7.12;60.15;99824.69;4993742;28;20304;-65
2022/03/11 04:39:05;;;;;;;;;;;;;;;7.12;59.93;99824.69;4994530;28;19960;-66
2022/03/11 04:41:49;;;;;;;;;;;;;;;7.11;59.99;99816.91;4994192;28;19956;-66
2022/03/11 04:44:34;;;;;;;;;;;;;;;7.10;59.94;99826.34;4993348;28;19925;-66
2022/03/11 04:47:18;;;;;;;;;;;;;;;7.10;59.99;99826.34;4993848;28;20049;-66
2022/03/11 04:50:02;;;;;;;;;;;;;;;7.08;59.84;99828.00;4993365;28;19924;-66
2022/03/11 04:52:46;;;;;;;;;;;;;;;7.07;59.81;99835.72;4993673;28;19924;-65
2022/03/11 04:55:30;;;;;;;;;;;;;;;7.08;60.01;99822.00;4994102;28;20015;-66
2022/03/11 04:58:14;;;;;;;;;;;;;;;7.07;59.83;99820.25;4993577;28;19924;-66
2022/03/11 05:00:58;;;;;;;;;;;;;;;7.07;59.82;99821.09;4993013;28;19924;-65
2022/03/11 05:03:42;;;;;;;;;;;;;;;7.07;59.91;99820.25;4993452;28;19933;-66
2022/03/11 05:06:25;;;;;;;;;;;;;;;7.08;59.66;99822.00;4994255;28;19965;-65
2022/03/11 05:09:09;;;;;;;;;;;;;;;7.08;59.84;99815.13;4993642;28;19941;-66
2022/03/11 05:11:53;;;;;;;;;;;;;;;7.09;59.70;99813.41;4997597;28;19924;-66
2022/03/11 05:14:38;;;;;;;;;;;;;;;7.08;59.62;99822.84;4997658;28;19941;-66
2022/03/11 05:17:22;;;;;;;;;;;;;;;7.09;59.68;99813.41;4996188;28;19924;-66
2022/03/11 05:20:06;;;;;;;;;;;;;;;7.08;59.50;99812.53;4997043;28;19925;-65
2022/03/11 05:22:50;;;;;;;;;;;;;;;7.08;59.77;99812.53;4997244;28;19924;-66
2022/03/11 05:25:34;;;;;;;;;;;;;;;7.09;59.86;99816.88;4996584;28;19964;-65
2022/03/11 05:28:18;;;;;;;;;;;;;;;7.10;59.39;99812.56;4996836;28;20008;-66
2022/03/11 05:31:02;;;;;;;;;;;;;;;7.09;59.68;99809.13;4996065;28;19998;-66
2022/03/11 05:33:47;;;;;;;;;;;;;;;7.09;59.39;99809.13;4997242;28;20040;-66
2022/03/11 05:36:30;;;;;;;;;;;;;;;7.09;59.43;99803.09;4996116;28;19924;-65
2022/03/11 05:39:14;;;;;;;;;;;;;;;7.09;59.31;99797.94;4997450;28;20388;-66
2022/03/11 05:41:58;;;;;;;;;;;;;;;7.09;59.45;99797.94;4996922;28;20396;-65
2022/03/11 05:44:42;;;;;;;;;;;;;;;7.09;59.52;99801.41;4995796;28;19925;-65
2022/03/11 05:47:26;;;;;;;;;;;;;;;7.08;59.33;99801.38;4996459;28;19948;-66
2022/03/11 05:50:11;;;;;;;;;;;;;;;7.05;59.50;99799.56;4996534;28;19941;-66
2022/03/11 05:52:55;;;;;;;;;;;;;;;7.06;59.26;99793.59;4997026;28;20060;-66
2022/03/11 05:55:38;;;;;;;;;;;;;;;7.06;59.07;99791.00;4996446;28;19928;-66
2022/03/11 05:58:22;;;;;;;;;;;;;;;7.05;59.08;99788.41;4997219;28;19925;-66
2022/03/11 06:01:06;;;;;;;;;;;;;;;7.05;59.06;99794.41;4996843;28;19924;-65
2022/03/11 06:03:51;;;;;;;;;;;;;;;7.05;59.05;99798.72;4996619;28;19923;-66
2022/03/11 06:06:34;;;;;;;;;;;;;;;7.07;59.14;99797.06;4995091;28;20465;-65
2022/03/11 06:09:18;;;;;;;;;;;;;;;7.05;59.00;99797.00;4995874;28;20340;-66
2022/03/11 06:12:02;;;;;;;;;;;;;;;7.06;59.08;99801.31;4995533;28;20290;-66
2022/03/11 06:14:46;;;;;;;;;;;;;;;7.05;59.17;99801.28;4995979;28;20399;-66
2022/03/11 06:17:30;;;;;;;;;;;;;;;7.05;59.30;99806.44;4996377;28;19971;-66
2022/03/11 06:20:14;;;;;;;;;;;;;;;7.04;59.32;99802.13;4996461;28;20388;-66
2022/03/11 06:22:58;;;;;;;;;;;;;;;7.04;59.15;99808.13;4994787;28;19924;-66
2022/03/11 06:25:42;;;;;;;;;;;;;;;7.00;58.93;99802.03;4996371;28;19925;-66
2022/03/11 06:28:26;;;;;;;;;;;;;;;7.00;58.75;99803.75;4995323;28;20350;-65
2022/03/11 06:31:11;;;;;;;;;;;;;;;6.98;58.67;99790.81;4995669;28;20024;-66
2022/03/11 06:33:54;;;;;;;;;;;;;;;6.99;58.66;99800.28;4994953;28;19925;-65
2022/03/11 06:36:38;;;;;;;;;;;;;;;7.00;58.62;99809.78;4994693;28;19975;-65
2022/03/11 06:39:22;;;;;;;;;;;;;;;7.01;59.10;99806.38;4996083;28;19925;-66
2022/03/11 06:42:06;;;;;;;;;;;;;;;7.01;58.90;99806.38;4996178;28;19924;-66
2022/03/11 06:44:50;;;;;;;;;;;;;;;6.99;58.80;99792.56;4994846;28;19943;-65
2022/03/11 06:47:34;;;;;;;;;;;;;;;6.97;58.72;99794.22;4996181;28;19924;-65
2022/03/11 06:50:18;;;;;;;;;;;;;;;6.96;58.77;99795.06;4995145;28;19925;-66
2022/03/11 06:53:02;;;;;;;;;;;;;;;6.94;58.80;99791.56;4995739;28;19924;-66
2022/03/11 06:55:46;;;;;;;;;;;;;;;6.94;58.58;99788.97;4995488;28;19924;-65
2022/03/11 06:58:30;;;;;;;;;;;;;;;6.94;58.60;99782.97;4995904;28;19925;-65
2022/03/11 07:01:14;;;;;;;;;;;;;;;6.96;58.85;99792.47;4994612;28;19924;-66
2022/03/11 07:03:58;;;;;;;;;;;;;;;6.96;58.94;99789.91;4995494;28;19945;-65
2022/03/11 07:06:42;;;;;;;;;;;;;;;6.96;58.53;99791.63;4994724;28;20300;-66
2022/03/11 07:09:26;;;;;;;;;;;;;;;6.95;58.84;99785.56;4995128;28;19929;-66
2022/03/11 07:12:10;;;;;;;;;;;;;;;6.96;58.77;99784.75;4995385;28;20017;-66
2022/03/11 07:14:54;;;;;;;;;;;;;;;6.98;58.71;99793.38;4995211;28;20388;-66
2022/03/11 07:17:40;;;;;;;;;;;;;;;6.96;58.77;99787.31;4994787;28;19927;-66
2022/03/11 07:20:25;;;;;;;;;;;;;;;6.97;58.84;99783.06;4994737;28;19933;-65
2022/03/11 07:23:15;;;;;;;;;;;;;;;6.97;58.83;99783.06;4995324;28;19923;-66
2022/03/11 07:25:58;;;;;;;;;;;;;;;6.97;58.74;99780.47;4994622;28;19924;-66
2022/03/11 07:28:42;;;;;;;;;;;;;;;6.98;58.96;99787.38;4995415;28;19925;-65
2022/03/11 07:31:26;;;;;;;;;;;;;;;6.98;58.80;99793.38;4994853;28;20020;-66
2022/03/11 07:34:10;;;;;;;;;;;;;;;6.99;58.84;99779.69;4994286;28;19969;-65
2022/03/11 07:36:55;;;;;;;;;;;;;;;7.00;58.83;99780.56;4994793;28;19940;-65
2022/03/11 07:39:39;;;;;;;;;;;;;;;6.99;58.91;99777.09;4994702;28;19929;-66
2022/03/11 07:42:23;;;;;;;;;;;;;;;7.00;59.28;99773.69;4994020;28;19924;-65
2022/03/11 07:45:07;;;;;;;;;;;;;;;7.03;58.88;99779.75;4994354;28;19960;-65
2022/03/11 07:47:52;;;;;;;;;;;;;;;7.01;59.12;99780.59;4993600;28;19925;-65
2022/03/11 07:50:35;;;;;;;;;;;;;;;7.03;59.37;99775.47;4995043;28;19964;-66
2022/03/11 07:53:20;;;;;;;;;;;;;;;7.04;59.36;99764.34;4994658;28;19925;-65
2022/03/11 07:56:06;;;;;;;;;;;;;;;7.04;59.18;99771.19;4994635;28;19972;-65
2022/03/11 07:58:50;;;;;;;;;;;;;;;7.05;59.03;99760.06;4993539;28;19925;-66
2022/03/11 08:01:34;;;;;;;;;;;;;;;7.05;59.18;99760.06;4994447;28;20041;-66
2022/03/11 08:04:18;;;;;;;;;;;;;;;7.08;59.32;99757.56;4994599;28;19925;-65
2022/03/11 08:07:06;;;;;;;;;;;;;;;7.08;59.21;99752.41;4994965;28;20340;-65
2022/03/11 08:09:50;;;;;;;;;;;;;;;7.08;58.97;99755.00;4993796;28;19924;-66
2022/03/11 08:12:36;;;;;;;;;;;;;;;7.09;59.20;99759.28;4994497;28;19964;-66
2022/03/11 08:15:20;;;;;;;;;;;;;;;7.09;59.23;99749.88;4994121;28;19945;-66
2022/03/11 08:18:04;;;;;;;;;;;;;;;7.11;59.40;99755.03;4993065;28;19969;-66
2022/03/11 08:20:48;;;;;;;;;;;;;;;7.12;59.25;99759.38;4993968;28;19928;-66
2022/03/11 08:23:32;;;;;;;;;;;;;;;7.13;59.25;99761.13;4993646;28;19924;-65
2022/03/11 08:26:15;;;;;;;;;;;;;;;7.14;59.55;99744.81;4993211;28;19924;-65
2022/03/11 08:28:59;;;;;;;;;;;;;;;7.16;59.38;99748.31;4994637;28;19924;-66
2022/03/11 08:31:44;;;;;;;;;;;;;;;7.15;59.48;99744.00;4994175;28;19924;-66
2022/03/11 08:34:28;;;;;;;;;;;;;;;7.18;59.34;99741.50;4994183;28;20432;-66
2022/03/11 08:37:12;;;;;;;;;;;;;;;7.20;59.33;99726.06;4992849;28;19924;-65
2022/03/11 08:39:56;;;;;;;;;;;;;;;7.22;59.68;99719.25;4993492;28;19924;-65
2022/03/11 08:42:40;;;;;;;;;;;;;;;7.22;59.55;99717.53;4993138;28;19925;-65
2022/03/11 08:45:24;;;;;;;;;;;;;;;7.25;59.62;99715.03;4995987;28;19972;-65
2022/03/11 08:48:08;;;;;;;;;;;;;;;7.32;59.49;99718.63;4996923;28;19941;-65
2022/03/11 08:50:52;;;;;;;;;;;;;;;7.37;59.53;99716.16;4998122;28;19972;-65
2022/03/11 08:53:36;;;;;;;;;;;;;;;7.42;59.61;99712.88;4997487;28;19925;-65
2022/03/11 08:56:22;;;;;;;;;;;;;;;7.47;59.15;99708.66;4996659;28;19972;-65
2022/03/11 08:59:05;;;;;;;;;;;;;;;7.51;59.42;99714.78;4997523;28;20451;-65
2022/03/11 09:01:49;;;;;;;;;;;;;;;7.55;59.39;99721.72;4997659;28;19924;-65
2022/03/11 09:04:34;;;;;;;;;;;;;;;7.61;59.38;99721.88;4997576;28;20380;-64
2022/03/11 09:07:18;;;;;;;;;;;;;;;7.64;59.41;99726.22;4997096;28;20285;-66
2022/03/11 09:10:04;;;;;;;;;;;;;;;7.69;59.38;99724.63;4997321;28;19924;-65
2022/03/11 09:12:48;;;;;;;;;;;;;;;7.72;59.24;99723.81;4997391;28;19971;-65
2022/03/11 09:15:31;;;;;;;;;;;;;;;7.75;59.24;99719.63;4997263;28;20012;-66
2022/03/11 09:18:15;;;;;;;;;;;;;;;7.80;59.27;99713.69;4997458;28;20013;-65
2022/03/11 09:21:01;;;;;;;;;;;;;;;7.84;59.63;99718.06;4997708;28;19945;-65
2022/03/11 09:23:45;;;;;;;;;;;;;;;7.88;59.32;99715.59;4996943;28;19925;-65
2022/03/11 09:26:29;;;;;;;;;;;;;;;7.90;59.45;99713.91;4996986;28;20439;-65
2022/03/11 09:29:13;;;;;;;;;;;;;;;7.91;59.39;99710.50;4997266;28;19925;-66
2022/03/11 09:31:57;;;;;;;;;;;;;;;7.92;59.56;99707.09;4996426;28;19968;-65
2022/03/11 09:34:41;;;;;;;;;;;;;;;7.94;59.48;99694.22;4995958;28;19925;-65
2022/03/11 09:37:25;;;;;;;;;;;;;;;7.97;59.41;99707.19;4996593;28;19983;-65
2022/03/11 09:40:10;;;;;;;;;;;;;;;7.99;59.63;99702.06;4997355;28;20372;-65
2022/03/11 09:42:54;;;;;;;;;;;;;;;7.99;59.60;99708.09;4995996;28;19976;-64
2022/03/11 09:45:38;;;;;;;;;;;;;;;7.99;59.63;99708.09;4996889;28;19929;-65
2022/03/11 09:48:23;;;;;;;;;;;;;;;8.00;59.77;99701.22;4996704;28;19925;-65
2022/03/11 09:51:09;;;;;;;;;;;;;;;8.02;59.50;99697.84;4996135;28;19939;-64
2022/03/11 09:53:53;;;;;;;;;;;;;;;8.04;59.53;99690.09;4996771;28;20416;-65
2022/03/11 09:56:38;;;;;;;;;;;;;;;8.04;59.58;99691.00;4996629;28;19924;-65
2022/03/11 09:59:23;;;;;;;;;;;;;;;8.06;59.70;99689.31;4996108;28;20391;-65
2022/03/11 10:02:16;;;;;;;;;;;;;;;8.08;59.61;99681.59;4995732;28;19937;-65
2022/03/11 10:05:00;;;;;;;;;;;;;;;8.14;59.54;99686.91;4996196;28;19925;-65
2022/03/11 10:07:44;;;;;;;;;;;;;;;8.16;59.55;99694.66;4995794;28;19967;-65
2022/03/11 10:10:28;;;;;;;;;;;;;;;8.16;59.60;99677.47;4996097;28;19940;-65
2022/03/11 10:13:13;;;;;;;;;;;;;;;8.16;59.62;99677.47;4996342;28;19968;-66
2022/03/11 10:15:58;;;;;;;;;;;;;;;8.16;59.59;99666.25;4995422;28;19981;-65
2022/03/11 10:18:45;;;;;;;;;;;;;;;8.17;59.63;99660.25;4995452;28;19972;-65
2022/03/11 10:21:32;;;;;;;;;;;;;;;8.17;59.69;99661.16;4996337;28;19924;-65
2022/03/11 10:24:18;;;;;;;;;;;;;;;8.17;59.66;99642.19;4995524;28;19941;-65
2022/03/11 10:27:07;;;;;;;;;;;;;;;8.18;59.69;99649.94;4995758;28;20381;-65
2022/03/11 10:29:52;;;;;;;;;;;;;;;8.18;59.82;99647.38;4996140;28;20384;-65
2022/03/11 10:32:47;;;;;;;;;;;;;;;8.20;59.71;99658.59;4995446;28;19925;-66
2022/03/11 10:35:32;;;;;;;;;;;;;;;8.21;59.82;99650.00;4995691;28;20416;-65
2022/03/11 10:38:20;;;;;;;;;;;;;;;8.27;59.57;99649.25;4994464;28;19925;-66
2022/03/11 10:41:06;;;;;;;;;;;;;;;8.28;59.69;99644.97;4995168;28;20005;-65
2022/03/11 10:44:02;;;;;;;;;;;;;;;8.29;59.75;99644.13;4996071;28;19925;-66
2022/03/11 10:46:46;;;;;;;;;;;;;;;8.28;59.88;99630.34;4995170;28;19944;-66
2022/03/11 10:49:32;;;;;;;;;;;;;;;8.27;59.82;99625.16;4995381;28;19971;-66
2022/03/11 10:52:27;;;;;;;;;;;;;;;8.23;59.87;99626.84;4994793;28;19967;-65
2022/03/11 10:55:26;;;;;;;;;;;;;;;8.21;59.90;99633.66;4995460;28;19924;-66
2022/03/11 10:58:16;;;;;;;;;;;;;;;8.25;59.87;99621.69;4994673;28;20012;-65
2022/03/11 11:01:00;;;;;;;;;;;;;;;8.27;59.93;99614.84;4995422;28;19956;-66
2022/03/11 11:03:45;;;;;;;;;;;;;;;8.27;59.89;99620.84;4994666;28;19973;-65
2022/03/11 11:06:29;;;;;;;;;;;;;;;8.29;59.92;99618.31;4995457;28;19924;-66
2022/03/11 11:09:14;;;;;;;;;;;;;;;8.29;59.81;99613.16;4995152;28;20400;-66
2022/03/11 11:11:58;;;;;;;;;;;;;;;8.28;59.86;99606.25;4993878;28;19980;-66
2022/03/11 11:14:43;;;;;;;;;;;;;;;8.28;59.81;99611.41;4994086;28;19924;-66
2022/03/11 11:17:27;;;;;;;;;;;;;;;8.27;59.89;99610.53;4994058;28;19924;-66
2022/03/11 11:20:30;;;;;;;;;;;;;;;8.28;60.15;99616.59;4995553;28;19979;-66
2022/03/11 11:23:15;;;;;;;;;;;;;;;8.32;59.93;99600.31;4995015;28;19963;-66
2022/03/11 11:25:59;;;;;;;;;;;;;;;8.33;59.99;99602.91;4994029;28;20345;-66
2022/03/11 11:28:43;;;;;;;;;;;;;;;8.33;59.91;99597.75;4995157;28;19924;-66
2022/03/11 11:31:28;;;;;;;;;;;;;;;8.34;59.99;99594.31;4995120;28;19960;-66
2022/03/11 11:34:30;;;;;;;;;;;;;;;8.36;59.96;99599.50;4994544;28;19924;-66
2022/03/11 11:37:32;;;;;;;;;;;;;;;8.38;59.84;99587.50;4994131;28;19972;-66
2022/03/11 11:40:18;;;;;;;;;;;;;;;8.41;59.96;99590.13;4993855;28;19925;-66
2022/03/11 11:43:08;;;;;;;;;;;;;;;8.43;59.99;99585.88;4995140;28;20313;-66
2022/03/11 11:46:05;;;;;;;;;;;;;;;8.45;60.03;99578.13;4995010;28;19964;-65
2022/03/11 11:48:49;;;;;;;;;;;;;;;8.45;60.03;99571.28;4994621;28;20391;-66
2022/03/11 11:51:36;;;;;;;;;;;;;;;8.47;60.13;99561.84;4994752;28;19924;-65
2022/03/11 11:54:31;;;;;;;;;;;;;;;8.49;60.09;99564.47;4994747;28;19972;-66
2022/03/11 11:57:16;;;;;;;;;;;;;;;8.51;59.94;99553.31;4994705;28;19925;-66
2022/03/11 12:00:05;;;;;;;;;;;;;;;8.55;60.10;99550.78;4993657;28;19948;-65
2022/03/11 12:02:49;;;;;;;;;;;;;;;8.58;60.27;99540.50;4994722;28;19925;-65
2022/03/11 12:05:39;;;;;;;;;;;;;;;8.59;59.94;99537.09;4994955;28;19956;-65
2022/03/11 12:08:40;;;;;;;;;;;;;;;8.62;60.25;99537.13;4993398;28;19924;-66
2022/03/11 12:11:36;;;;;;;;;;;;;;;8.63;60.05;99534.56;4993758;28;19924;-66
2022/03/11 12:14:20;;;;;;;;;;;;;;;8.72;60.19;99528.66;4994829;28;19979;-67
2022/03/11 12:17:06;;;;;;;;;;;;;;;8.77;60.13;99526.16;4994278;28;19924;-66
2022/03/11 12:19:49;;;;;;;;;;;;;;;8.81;60.11;99521.03;4995169;28;20324;-65
2022/03/11 12:22:34;;;;;;;;;;;;;;;8.83;60.11;99521.94;4998593;28;20452;-66
2022/03/11 12:25:20;;;;;;;;;;;;;;;8.95;59.99;99523.00;4998792;28;20328;-66
2022/03/11 12:28:28;;;;;;;;;;;;;;;8.96;60.02;99512.66;4998390;28;19924;-66
2022/03/11 12:31:13;;;;;;;;;;;;;;;8.98;60.09;99503.22;4998179;28;19924;-66
2022/03/11 12:34:00;;;;;;;;;;;;;;;8.98;60.12;99504.91;4997533;28;19968;-66
2022/03/11 12:36:47;;;;;;;;;;;;;;;8.94;59.93;99504.00;4997988;28;19956;-65
2022/03/11 12:39:32;;;;;;;;;;;;;;;8.98;60.08;99502.34;4998483;28;19987;-66
2022/03/11 12:42:16;;;;;;;;;;;;;;;8.97;59.95;99498.00;4998163;28;19924;-66
2022/03/11 12:45:00;;;;;;;;;;;;;;;8.98;59.92;99497.16;4997962;28;19972;-66
2022/03/11 12:47:44;;;;;;;;;;;;;;;8.97;60.30;99483.38;4997716;28;19965;-65
2022/03/11 12:50:28;;;;;;;;;;;;;;;8.95;60.14;99486.81;4997675;28;20292;-65
2022/03/11 12:53:12;;;;;;;;;;;;;;;8.95;60.42;99481.63;4997483;28;19923;-66
2022/03/11 12:55:57;;;;;;;;;;;;;;;8.94;59.99;99469.56;4997970;28;19964;-66
2022/03/11 12:58:41;;;;;;;;;;;;;;;8.94;60.13;99485.91;4997921;28;19925;-66
2022/03/11 13:01:26;;;;;;;;;;;;;;;9.03;60.08;99486.91;4997054;28;19940;-66
2022/03/11 13:04:11;;;;;;;;;;;;;;;9.08;59.91;99473.19;4997630;28;19925;-66
2022/03/11 13:07:02;;;;;;;;;;;;;;;9.14;59.73;99465.50;4997579;28;19925;-66
2022/03/11 13:09:45;;;;;;;;;;;;;;;9.18;59.88;99462.97;4996779;28;19968;-66
2022/03/11 13:12:30;;;;;;;;;;;;;;;9.18;59.91;99460.38;4997727;28;19941;-65
2022/03/11 13:15:26;;;;;;;;;;;;;;;9.21;59.82;99452.66;4996410;28;20289;-66
2022/03/11 13:18:11;;;;;;;;;;;;;;;9.21;59.83;99450.06;4997242;28;20280;-66
2022/03/11 13:20:59;;;;;;;;;;;;;;;9.21;59.91;99450.94;4996516;28;19968;-66
2022/03/11 13:23:44;;;;;;;;;;;;;;;9.20;59.75;99445.75;4996270;28;19924;-66
2022/03/11 13:26:28;;;;;;;;;;;;;;;9.20;59.93;99443.16;4997059;28;19977;-66
2022/03/11 13:29:12;;;;;;;;;;;;;;;9.18;59.79;99440.56;4996955;28;20432;-66
2022/03/11 13:31:57;;;;;;;;;;;;;;;9.17;59.85;99454.34;4996302;28;19965;-66
2022/03/11 13:34:47;;;;;;;;;;;;;;;9.16;59.99;99437.09;4996618;28;20397;-66
2022/03/11 13:37:43;;;;;;;;;;;;;;;9.14;60.11;99442.22;4997126;28;19925;-66
2022/03/11 13:40:27;;;;;;;;;;;;;;;9.15;60.04;99437.94;4996310;28;20024;-66
2022/03/11 13:43:11;;;;;;;;;;;;;;;9.17;59.92;99441.41;4996924;28;19925;-66
2022/03/11 13:45:55;;;;;;;;;;;;;;;9.21;59.91;99443.16;4996608;28;20407;-65
2022/03/11 13:48:39;;;;;;;;;;;;;;;9.23;59.77;99427.69;4997248;28;19960;-66
2022/03/11 13:51:37;;;;;;;;;;;;;;;9.22;59.71;99426.81;4997136;28;19972;-66
2022/03/11 13:54:22;;;;;;;;;;;;;;;9.20;59.73;99432.81;4996965;28;19923;-66
2022/03/11 13:57:19;;;;;;;;;;;;;;;9.20;59.92;99427.66;4996789;28;19924;-66
2022/03/11 14:00:24;;;;;;;;;;;;;;;9.18;59.93;99431.94;4996863;28;20289;-66
2022/03/11 14:03:14;;;;;;;;;;;;;;;9.17;59.94;99437.94;4995176;28;19928;-66
2022/03/11 14:05:59;;;;;;;;;;;;;;;9.16;60.14;99442.25;4996673;28;20035;-66
2022/03/11 14:08:49;;;;;;;;;;;;;;;9.19;59.83;99425.91;4996698;28;19924;-66
2022/03/11 14:11:34;;;;;;;;;;;;;;;9.19;59.86;99428.50;4995797;28;19924;-65
2022/03/11 14:14:25;;;;;;;;;;;;;;;9.19;60.04;99428.50;4995430;28;19987;-67
2022/03/11 14:17:10;;;;;;;;;;;;;;;9.19;60.02;99418.16;4995188;28;19973;-66
2022/03/11 14:19:54;;;;;;;;;;;;;;;9.18;59.94;99416.41;4995686;28;19972;-66
2022/03/11 14:22:39;;;;;;;;;;;;;;;9.24;60.00;99434.59;4995348;28;20400;-67
2022/03/11 14:25:23;;;;;;;;;;;;;;;9.23;59.72;99420.78;4995216;28;19923;-66
2022/03/11 14:28:08;;;;;;;;;;;;;;;9.22;59.62;99418.19;4995116;28;19925;-66
2022/03/11 14:30:51;;;;;;;;;;;;;;;9.23;60.10;99427.69;4996028;28;20065;-66
2022/03/11 14:33:35;;;;;;;;;;;;;;;9.22;59.82;99418.19;4996131;28;19988;-67